createdAt,value
2023-05-22T00:01:36.869Z,98903.97
2023-05-22T00:11:40.730Z,98895.99
2023-05-22T00:21:44.571Z,98888.58
2023-05-22T00:31:48.405Z,98881.86
2023-05-22T00:41:55.682Z,98877.09
2023-05-22T00:51:59.827Z,98878.73
2023-05-22T01:02:03.741Z,98873.31
2023-05-22T01:12:14.510Z,98868.34
2023-05-22T01:22:22.122Z,98869.02
2023-05-22T01:32:29.007Z,98871.36
2023-05-22T01:42:33.127Z,98871.09
2023-05-22T01:52:35.502Z,98868.52
2023-05-22T02:02:42.927Z,98877.27
2023-05-22T02:12:46.925Z,98870.41
2023-05-22T02:22:50.468Z,98868.95
2023-05-22T02:32:53.892Z,98871.71
2023-05-22T02:42:57.736Z,98869.64
2023-05-22T02:53:01.488Z,98857.52
2023-05-22T03:03:04.945Z,98849.98
2023-05-22T03:13:08.710Z,98850.08
2023-05-22T03:23:12.018Z,98841.17
2023-05-22T03:33:14.654Z,98845.08
2023-05-22T03:43:18.366Z,98839.11
2023-05-22T03:53:21.917Z,98831.59
2023-05-22T04:03:25.619Z,98828.27
2023-05-22T04:13:31.366Z,98828.27
2023-05-22T04:23:35.277Z,98825.06
2023-05-22T04:33:39.581Z,98829.69
2023-05-22T04:43:43.486Z,98831.09
2023-05-22T04:53:49.726Z,98834.20
2023-05-22T05:03:53.603Z,98832.96
2023-05-22T05:13:57.390Z,98826.52
2023-05-22T05:24:01.861Z,98828.73
2023-05-22T05:34:05.305Z,98831.70
2023-05-22T05:44:08.931Z,98835.94
2023-05-22T05:54:12.585Z,98828.15
2023-05-22T06:04:16.333Z,98825.15
2023-05-22T06:14:20.342Z,98825.91
2023-05-22T06:24:24.085Z,98826.73
2023-05-22T06:34:28.847Z,98821.94
2023-05-22T06:44:32.870Z,98815.83
2023-05-22T06:54:35.858Z,98818.02
2023-05-22T07:04:39.452Z,98818.30
2023-05-22T07:14:42.971Z,98810.64
2023-05-22T07:24:47.056Z,98808.34
2023-05-22T07:34:50.632Z,98814.67
2023-05-22T07:44:54.893Z,98816.48
2023-05-22T07:54:58.496Z,98811.04
2023-05-22T08:05:03.936Z,98811.11
2023-05-22T08:15:09.390Z,98808.27
2023-05-22T08:25:13.912Z,98804.06
2023-05-22T08:35:17.644Z,98811.08
2023-05-22T08:45:21.826Z,98811.68
2023-05-22T08:55:26.698Z,98806.11
2023-05-22T09:05:31.131Z,98801.41
2023-05-22T09:15:35.331Z,98799.77
2023-05-22T09:25:39.169Z,98798.05
2023-05-22T09:35:43.415Z,98792.75
2023-05-22T09:45:47.078Z,98784.21
2023-05-22T09:55:52.730Z,98774.58
2023-05-22T10:05:58.944Z,98769.73
2023-05-22T10:16:04.091Z,98770.23
2023-05-22T10:26:08.557Z,98759.52
2023-05-22T10:36:20.663Z,98751.43
2023-05-22T10:46:24.516Z,98740.01
2023-05-22T10:56:32.572Z,98740.69
2023-05-22T11:06:35.991Z,98727.67
2023-05-22T11:16:40.375Z,98722.36
2023-05-22T11:26:44.715Z,98711.05
2023-05-22T11:36:49.521Z,98714.82
2023-05-22T11:46:53.989Z,98704.08
2023-05-22T11:56:57.964Z,98695.70
2023-05-22T12:07:01.976Z,98692.14
2023-05-22T12:17:05.670Z,98696.74
2023-05-22T12:27:08.477Z,98691.70
2023-05-22T12:37:22.102Z,98685.38
2023-05-22T12:47:26.607Z,98671.55
2023-05-22T12:57:30.741Z,98657.68
2023-05-22T13:07:34.538Z,98652.14
2023-05-22T13:17:37.934Z,98647.30
2023-05-22T13:27:42.205Z,98648.52
2023-05-22T13:37:46.927Z,98636.93
2023-05-22T13:47:50.777Z,98640.33
2023-05-22T13:57:54.669Z,98635.79
2023-05-22T14:07:58.621Z,98625.81
2023-05-22T14:18:02.478Z,98610.70
2023-05-22T14:28:07.040Z,98602.15
2023-05-22T14:38:11.236Z,98601.66
2023-05-22T14:48:15.277Z,98595.63
2023-05-22T14:58:19.089Z,98596.00
2023-05-22T15:08:22.754Z,98594.22
2023-05-22T15:18:26.521Z,98582.60
2023-05-22T15:28:30.863Z,98578.55
2023-05-22T15:38:34.903Z,98568.52
2023-05-22T15:48:38.705Z,98562.55
2023-05-22T15:58:42.912Z,98559.95
2023-05-22T16:08:46.470Z,98549.52
2023-05-22T16:18:50.146Z,98544.99
2023-05-22T16:28:53.894Z,98549.17
2023-05-22T16:38:58.057Z,98551.08
2023-05-22T16:49:01.964Z,98548.08
2023-05-22T16:59:06.249Z,98545.52
2023-05-22T17:09:10.165Z,98548.77
2023-05-22T17:19:13.154Z,98550.77
2023-05-22T17:29:16.785Z,98554.98
2023-05-22T17:39:21.282Z,98553.63
2023-05-22T17:49:25.300Z,98556.77
2023-05-22T17:59:28.802Z,98548.41
2023-05-22T18:09:32.231Z,98544.69
2023-05-22T18:19:36.457Z,98541.30
2023-05-22T18:29:40.093Z,98539.71
2023-05-22T18:39:43.174Z,98543.42
2023-05-22T18:49:46.891Z,98546.19
2023-05-22T18:59:50.755Z,98544.96
2023-05-22T19:09:54.827Z,98537.50
2023-05-22T19:19:58.558Z,98547.30
2023-05-22T19:30:02.467Z,98543.86
2023-05-22T19:40:09.500Z,98544.02
2023-05-22T19:50:13.709Z,98544.36
2023-05-22T20:00:19.204Z,98547.27
2023-05-22T20:10:23.307Z,98548.59
2023-05-22T20:20:26.922Z,98548.77
2023-05-22T20:30:30.815Z,98541.52
2023-05-22T20:40:34.790Z,98535.85
2023-05-22T20:50:39.950Z,98534.19
2023-05-22T21:00:45.310Z,98531.81
2023-05-22T21:10:48.812Z,98528.70
2023-05-22T21:20:52.984Z,98529.69
2023-05-22T21:30:56.913Z,98527.84
2023-05-22T21:41:01.098Z,98528.65
2023-05-22T21:51:05.128Z,98531.40
2023-05-22T22:01:09.512Z,98538.09
2023-05-22T22:11:13.306Z,98534.68
2023-05-22T22:21:17.120Z,98529.66
2023-05-22T22:31:21.161Z,98519.20
2023-05-22T22:41:25.545Z,98507.70
2023-05-22T22:51:29.668Z,98502.39
2023-05-22T23:01:33.363Z,98501.81
2023-05-22T23:11:37.753Z,98495.57
2023-05-22T23:21:42.093Z,98490.79
2023-05-22T23:31:46.875Z,98473.72
2023-05-22T23:41:53.748Z,98460.59
2023-05-22T23:51:57.135Z,98451.60
